Time;durP1;ratioP1;P1;durP2;ratioP2;P2;SDS_P1;SDS_P2;PMS_P1;PMS_P2;Temp;Humidity;BMP_temperature;BMP_pressure;BME280_temperature;BME280_humidity;BME280_pressure;Samples;Min_cycle;Max_cycle;Signal;HPM_P1;HPM_P2
2021/01/09 00:01:50;;;;;;;8.48;6.10;;;;;;;18.68;46.23;102199.81;5032739;28;20029;-68
2021/01/09 00:04:15;;;;;;;8.48;6.22;;;;;;;18.65;46.15;102191.91;5054278;28;20033;-74
2021/01/09 00:06:41;;;;;;;11.82;7.05;;;;;;;18.65;46.18;102190.19;5045849;28;20082;-67
2021/01/09 00:09:07;;;;;;;7.38;5.38;;;;;;;18.64;46.34;102188.41;5058348;28;20085;-68
2021/01/09 00:11:33;;;;;;;8.30;5.57;;;;;;;18.64;46.25;102184.91;5057322;28;20391;-68
2021/01/09 00:13:59;;;;;;;9.02;5.90;;;;;;;18.59;46.04;102187.44;5055443;28;20025;-68
2021/01/09 00:16:24;;;;;;;10.30;6.80;;;;;;;18.64;45.93;102198.00;5061781;28;20032;-75
2021/01/09 00:18:53;;;;;;;8.75;5.45;;;;;;;18.63;46.10;102202.38;5054529;28;20153;-74
2021/01/09 00:21:18;;;;;;;8.27;5.85;;;;;;;18.62;45.98;102200.59;5054558;28;20024;-73
2021/01/09 00:23:44;;;;;;;7.75;5.85;;;;;;;18.63;45.97;102201.47;5053913;28;20035;-74
2021/01/09 00:26:09;;;;;;;8.45;6.35;;;;;;;18.62;45.97;102200.59;5052866;28;20037;-73
2021/01/09 00:28:35;;;;;;;7.65;5.15;;;;;;;18.61;46.08;102205.81;5053375;28;20025;-74
2021/01/09 00:31:00;;;;;;;7.88;5.35;;;;;;;18.59;46.13;102204.91;5054440;28;20475;-74
2021/01/09 00:33:25;;;;;;;7.82;4.93;;;;;;;18.58;45.83;102209.25;5053984;28;20033;-67
2021/01/09 00:35:53;;;;;;;6.43;4.80;;;;;;;18.55;46.12;102207.47;5058111;28;20498;-67
2021/01/09 00:38:18;;;;;;;6.45;4.60;;;;;;;18.57;46.08;102210.06;5032631;28;20035;-67
2021/01/09 00:40:47;;;;;;;8.05;5.43;;;;;;;18.57;45.89;102207.47;5057869;28;22308;-68
2021/01/09 00:43:12;;;;;;;6.35;5.10;;;;;;;18.51;46.05;102202.13;5050245;28;20032;-69
2021/01/09 00:45:37;;;;;;;6.30;4.30;;;;;;;18.55;45.84;102203.97;5051540;28;20447;-70
2021/01/09 00:48:03;;;;;;;7.28;5.57;;;;;;;18.55;45.88;102211.81;5058489;28;20135;-67
2021/01/09 00:50:28;;;;;;;7.80;5.07;;;;;;;18.54;45.90;102224.03;5040429;28;20028;-68
2021/01/09 00:52:54;;;;;;;6.38;5.68;;;;;;;18.54;45.83;102212.66;5057386;28;20036;-68
2021/01/09 00:55:22;;;;;;;9.52;5.80;;;;;;;18.53;45.91;102216.16;5041366;28;20025;-68
2021/01/09 00:57:47;;;;;;;7.45;5.43;;;;;;;18.51;45.72;102215.22;5053340;28;20041;-70
2021/01/09 01:00:13;;;;;;;8.30;4.90;;;;;;;18.47;45.76;102213.41;5055487;28;20081;-67
2021/01/09 01:02:39;;;;;;;8.40;5.20;;;;;;;18.49;45.80;102219.56;5048013;28;20029;-68
2021/01/09 01:05:05;;;;;;;6.18;4.28;;;;;;;18.48;45.98;102220.41;5031575;28;20434;-67
2021/01/09 01:07:34;;;;;;;6.30;4.78;;;;;;;18.48;45.99;102223.91;5062978;28;20041;-68
2021/01/09 01:10:00;;;;;;;6.45;4.55;;;;;;;18.49;45.85;102224.78;5051830;28;21492;-74
2021/01/09 01:12:25;;;;;;;7.03;4.93;;;;;;;18.48;45.75;102236.13;5053302;28;20059;-74
2021/01/09 01:14:50;;;;;;;6.95;5.00;;;;;;;18.46;45.72;102233.47;5050222;28;20150;-74
2021/01/09 01:17:16;;;;;;;6.22;4.63;;;;;;;18.46;45.80;102229.97;5051762;28;20029;-74
2021/01/09 01:19:41;;;;;;;8.30;4.47;;;;;;;18.48;45.72;102241.38;5055246;28;20459;-74
2021/01/09 01:22:07;;;;;;;7.05;3.88;;;;;;;18.45;45.74;102247.44;5051192;28;20047;-73
2021/01/09 01:24:32;;;;;;;6.28;4.18;;;;;;;18.44;45.73;102248.28;5050867;28;20059;-73
2021/01/09 01:26:57;;;;;;;5.38;3.92;;;;;;;18.45;45.83;102246.53;5050339;28;20091;-74
2021/01/09 01:29:23;;;;;;;6.50;4.13;;;;;;;18.45;45.86;102243.94;5035202;28;20033;-74
2021/01/09 01:31:48;;;;;;;5.00;3.65;;;;;;;18.44;45.97;102250.00;5053915;28;20033;-74
2021/01/09 01:34:13;;;;;;;6.50;4.53;;;;;;;18.40;45.83;102251.72;5055466;28;20028;-74
2021/01/09 01:36:39;;;;;;;5.10;3.85;;;;;;;18.39;45.79;102247.34;5053236;28;20029;-68
2021/01/09 01:39:04;;;;;;;5.13;3.80;;;;;;;18.41;45.82;102263.09;5032521;28;20037;-68
2021/01/09 01:41:30;;;;;;;7.65;4.40;;;;;;;18.40;45.83;102259.59;5045121;28;20112;-74
2021/01/09 01:43:55;;;;;;;5.53;3.83;;;;;;;18.39;45.87;102267.41;5038332;28;20038;-73
2021/01/09 01:46:21;;;;;;;6.32;4.07;;;;;;;18.39;45.74;102270.03;5045358;28;20025;-74
2021/01/09 01:48:47;;;;;;;5.63;3.72;;;;;;;18.38;45.78;102269.16;5051819;28;20031;-73
2021/01/09 01:51:14;;;;;;;5.43;3.90;;;;;;;18.39;45.52;102270.91;5031445;28;20091;-73
2021/01/09 01:53:39;;;;;;;4.82;3.90;;;;;;;18.39;45.72;102275.25;5050539;28;20438;-74
2021/01/09 01:56:05;;;;;;;5.15;3.70;;;;;;;18.36;45.62;102275.19;5051782;28;20027;-73
2021/01/09 01:58:31;;;;;;;6.07;3.88;;;;;;;18.35;45.99;102271.69;5047723;28;20086;-74
2021/01/09 02:00:56;;;;;;;5.05;3.55;;;;;;;18.38;45.67;102270.88;5050403;28;20037;-67
2021/01/09 02:03:22;;;;;;;5.32;3.30;;;;;;;18.36;45.71;102272.59;5047572;28;20025;-68
2021/01/09 02:06:24;;;;;;;5.85;4.07;;;;;;;18.36;45.49;102273.47;5049675;28;20068;-68
2021/01/09 02:09:01;;;;;;;6.25;4.72;;;;;;;18.34;45.77;102271.66;5042692;28;20052;-67
2021/01/09 02:11:36;;;;;;;4.60;3.85;;;;;;;18.33;45.73;102273.41;5051731;28;20124;-68
2021/01/09 02:14:05;;;;;;;4.55;3.42;;;;;;;18.32;45.67;102274.25;5048860;28;20020;-68
2021/01/09 02:16:32;;;;;;;7.13;3.92;;;;;;;18.28;45.71;102267.22;5052034;28;20055;-67
2021/01/09 02:18:59;;;;;;;5.03;4.03;;;;;;;18.27;45.65;102273.31;5051335;28;20116;-67
2021/01/09 02:21:34;;;;;;;6.57;4.10;;;;;;;18.28;45.65;102272.47;5051273;28;20037;-67
2021/01/09 02:24:00;;;;;;;5.57;3.33;;;;;;;18.27;45.67;102272.44;5050150;28;20024;-68
2021/01/09 02:26:25;;;;;;;4.53;2.97;;;;;;;18.26;45.68;102276.78;5051729;28;20029;-67
2021/01/09 02:28:50;;;;;;;6.95;3.67;;;;;;;18.30;45.63;102285.59;5050042;28;20045;-67
2021/01/09 02:31:21;;;;;;;4.38;3.35;;;;;;;18.28;45.67;102282.03;5052257;28;20036;-67
2021/01/09 02:33:48;;;;;;;4.15;3.08;;;;;;;18.27;45.68;102288.13;5052500;28;20075;-68
2021/01/09 02:36:15;;;;;;;4.18;3.65;;;;;;;18.27;45.67;102288.13;5051196;28;20032;-68
2021/01/09 02:38:43;;;;;;;4.68;3.90;;;;;;;18.36;45.58;102290.91;5055106;28;20028;-67
2021/01/09 02:41:09;;;;;;;5.32;2.80;;;;;;;18.42;45.16;102285.81;5053126;28;20491;-68
2021/01/09 02:43:34;;;;;;;4.93;3.33;;;;;;;18.44;45.40;102298.03;5033487;28;20112;-67
2021/01/09 02:46:00;;;;;;;5.80;3.50;;;;;;;18.45;45.27;102293.69;5050921;28;20140;-67
2021/01/09 02:48:25;;;;;;;4.40;3.15;;;;;;;18.54;45.25;102291.25;5052108;28;20025;-68
2021/01/09 02:50:50;;;;;;;4.40;3.58;;;;;;;18.56;45.04;102294.78;5051486;28;20041;-68
2021/01/09 02:53:16;;;;;;;4.25;3.17;;;;;;;18.55;45.18;102299.16;5051203;28;20033;-68
2021/01/09 02:55:41;;;;;;;4.07;2.83;;;;;;;18.52;45.23;102291.22;5052386;28;20033;-68
2021/01/09 02:58:06;;;;;;;3.78;2.92;;;;;;;18.62;45.10;102289.69;5036889;28;20033;-67
2021/01/09 03:00:32;;;;;;;3.95;3.20;;;;;;;18.62;44.90;102292.31;5051153;28;20031;-68
2021/01/09 03:02:57;;;;;;;3.72;2.88;;;;;;;18.57;45.21;102300.03;5052219;28;20025;-67
2021/01/09 03:05:22;;;;;;;4.07;3.08;;;;;;;18.65;45.15;102307.19;5016506;28;20056;-68
2021/01/09 03:07:48;;;;;;;3.28;2.72;;;;;;;18.67;44.88;102293.28;5049104;28;20039;-68
2021/01/09 03:10:13;;;;;;;4.28;3.08;;;;;;;18.66;45.05;102296.75;5051035;28;20060;-67
2021/01/09 03:12:38;;;;;;;5.90;3.05;;;;;;;18.64;45.09;102295.84;5050146;28;20057;-67
2021/01/09 03:15:04;;;;;;;3.63;2.38;;;;;;;18.70;44.96;102293.31;5056512;28;20037;-68
2021/01/09 03:17:30;;;;;;;5.30;2.72;;;;;;;18.68;44.90;102291.53;5054239;28;20036;-67
2021/01/09 03:19:55;;;;;;;4.38;3.30;;;;;;;18.67;45.05;102300.25;5052572;28;20037;-67
2021/01/09 03:22:21;;;;;;;3.65;2.65;;;;;;;18.65;45.05;102288.84;5050872;28;20032;-67
2021/01/09 03:24:46;;;;;;;3.85;2.67;;;;;;;18.72;44.91;102299.47;5058081;28;20028;-68
2021/01/09 03:27:11;;;;;;;3.38;2.13;;;;;;;18.69;45.16;102296.81;5052423;28;20029;-68
2021/01/09 03:29:37;;;;;;;5.43;2.95;;;;;;;18.67;44.85;102292.38;5048155;28;20037;-68
2021/01/09 03:32:02;;;;;;;3.42;2.47;;;;;;;18.75;44.81;102298.63;5050477;28;20395;-67
2021/01/09 03:34:28;;;;;;;4.47;2.55;;;;;;;18.73;44.87;102295.97;5052088;28;20386;-68
2021/01/09 03:36:53;;;;;;;3.72;2.65;;;;;;;18.71;45.00;102292.44;5048220;28;20116;-67
2021/01/09 03:39:18;;;;;;;2.97;2.17;;;;;;;18.72;45.02;102288.09;5047935;28;20131;-67
2021/01/09 03:41:43;;;;;;;3.53;2.35;;;;;;;18.76;44.83;102298.66;5057329;28;20028;-68
2021/01/09 03:44:09;;;;;;;4.35;3.15;;;;;;;18.70;44.97;102297.66;5048064;28;21850;-68
2021/01/09 03:46:34;;;;;;;4.57;2.42;;;;;;;18.71;45.02;102300.31;5049165;28;20438;-67
2021/01/09 03:49:00;;;;;;;3.45;2.08;;;;;;;18.76;44.91;102305.66;5066235;28;20036;-67
2021/01/09 03:51:25;;;;;;;3.28;2.13;;;;;;;18.77;44.88;102300.44;5059106;28;20028;-67
2021/01/09 03:53:50;;;;;;;3.55;2.28;;;;;;;18.77;44.95;102300.44;5052309;28;20029;-67
2021/01/09 03:56:15;;;;;;;3.92;1.95;;;;;;;18.74;44.91;102303.00;5054960;28;20112;-67
2021/01/09 03:58:42;;;;;;;5.03;2.20;;;;;;;18.74;45.03;102296.88;5055371;28;20403;-67
2021/01/09 04:01:08;;;;;;;3.47;2.22;;;;;;;18.75;45.10;102304.75;5051946;28;20068;-67
2021/01/09 04:03:33;;;;;;;4.45;2.22;;;;;;;18.79;44.89;102306.59;5050468;28;20044;-67
2021/01/09 04:05:58;;;;;;;2.33;1.85;;;;;;;18.77;45.06;102299.53;5040484;28;20042;-67
2021/01/09 04:08:24;;;;;;;2.58;1.85;;;;;;;18.76;44.96;102306.53;5032367;28;20095;-67
2021/01/09 04:10:49;;;;;;;3.45;2.45;;;;;;;18.81;44.87;102310.13;5025438;28;20036;-68
2021/01/09 04:13:14;;;;;;;3.35;2.17;;;;;;;18.78;44.74;102296.06;5021803;28;20128;-68
2021/01/09 04:15:40;;;;;;;3.55;2.38;;;;;;;18.78;44.96;102303.94;5001222;28;20036;-68
2021/01/09 04:18:05;;;;;;;4.10;2.30;;;;;;;18.74;44.87;102303.00;5016498;28;20033;-67
2021/01/09 04:20:31;;;;;;;3.30;2.42;;;;;;;18.70;45.13;102306.41;5021047;28;20041;-67
2021/01/09 04:22:59;;;;;;;2.33;1.80;;;;;;;18.67;44.96;102305.50;5017566;28;20038;-67
2021/01/09 04:25:25;;;;;;;3.05;2.05;;;;;;;18.65;45.18;102305.47;5029785;28;20037;-68
2021/01/09 04:27:50;;;;;;;3.17;1.92;;;;;;;18.62;45.20;102315.88;5032992;28;20032;-67
2021/01/09 04:30:16;;;;;;;2.72;1.88;;;;;;;18.59;45.18;102313.19;5018646;28;20030;-67
2021/01/09 04:32:41;;;;;;;4.38;2.40;;;;;;;18.58;45.15;102308.81;5020744;28;20361;-67
2021/01/09 04:35:07;;;;;;;3.08;1.75;;;;;;;18.57;45.19;102317.50;5030101;28;20134;-68
2021/01/09 04:37:36;;;;;;;3.70;2.55;;;;;;;18.55;45.18;102314.88;5002520;28;20032;-67
2021/01/09 04:40:06;;;;;;;3.05;1.95;;;;;;;18.55;45.27;102321.84;5024626;28;20379;-67
2021/01/09 04:42:35;;;;;;;3.00;2.08;;;;;;;18.48;45.07;102310.34;5007943;28;20124;-67
2021/01/09 04:45:01;;;;;;;3.33;1.80;;;;;;;18.49;45.28;102317.38;5008721;28;20101;-67
2021/01/09 04:47:29;;;;;;;3.17;2.10;;;;;;;18.46;45.17;102314.69;5028883;28;20046;-67
2021/01/09 04:49:54;;;;;;;3.03;2.08;;;;;;;18.48;45.18;102319.94;5013463;28;20093;-67
2021/01/09 04:52:20;;;;;;;2.50;1.98;;;;;;;18.46;45.09;102329.50;5013871;28;20029;-68
2021/01/09 04:54:47;;;;;;;2.85;1.95;;;;;;;18.46;45.26;102326.91;5012756;28;20040;-67
2021/01/09 04:57:13;;;;;;;4.70;2.10;;;;;;;18.45;45.06;102323.38;5030126;28;20045;-67
2021/01/09 04:59:39;;;;;;;3.35;1.80;;;;;;;18.45;44.91;102327.75;5028764;28;20033;-67
2021/01/09 05:02:05;;;;;;;4.38;2.30;;;;;;;18.43;45.38;102337.34;5007747;28;20038;-67
2021/01/09 05:04:31;;;;;;;2.92;2.03;;;;;;;18.39;44.99;102327.66;5016258;28;20484;-67
2021/01/09 05:06:56;;;;;;;2.55;1.50;;;;;;;18.41;45.30;102328.56;5050443;28;20045;-67
2021/01/09 05:09:21;;;;;;;2.45;1.63;;;;;;;18.40;44.91;102330.31;5048323;28;20510;-67
2021/01/09 05:11:48;;;;;;;2.53;1.92;;;;;;;18.38;45.11;102334.63;5032009;28;20132;-68
2021/01/09 05:14:13;;;;;;;2.50;1.58;;;;;;;18.38;44.88;102341.59;5045825;28;20124;-67
2021/01/09 05:16:40;;;;;;;2.80;1.90;;;;;;;18.38;45.13;102341.59;5049109;28;20111;-67
2021/01/09 05:19:07;;;;;;;5.05;2.35;;;;;;;18.37;44.76;102339.81;5050728;28;20083;-67
2021/01/09 05:21:35;;;;;;;2.28;1.45;;;;;;;18.36;44.87;102343.28;5050955;28;20025;-67
2021/01/09 05:24:05;;;;;;;2.85;2.00;;;;;;;18.34;45.13;102339.75;5049750;28;20017;-67
2021/01/09 05:26:32;;;;;;;2.58;1.40;;;;;;;18.31;45.00;102334.44;5056721;28;20104;-67
2021/01/09 05:29:00;;;;;;;2.78;1.80;;;;;;;18.33;45.15;102346.72;5042105;28;20033;-67
2021/01/09 05:31:27;;;;;;;4.75;2.67;;;;;;;18.32;45.42;102351.94;5047269;28;20024;-67
2021/01/09 05:33:53;;;;;;;2.20;1.80;;;;;;;18.31;45.34;102351.06;5049247;28;20491;-67
2021/01/09 05:36:20;;;;;;;2.97;1.73;;;;;;;18.30;44.98;102351.06;5046645;28;20075;-67
2021/01/09 05:38:47;;;;;;;2.90;1.80;;;;;;;18.27;45.03;102343.13;5051660;28;20036;-67
2021/01/09 05:41:22;;;;;;;3.40;1.73;;;;;;;18.24;45.10;102345.69;5049645;28;20033;-67
2021/01/09 05:44:09;;;;;;;2.22;1.50;;;;;;;18.28;45.04;102353.63;5047575;28;20040;-67
2021/01/09 05:46:37;;;;;;;2.60;1.42;;;;;;;18.26;45.21;102357.94;5045300;28;20042;-67
2021/01/09 05:49:04;;;;;;;3.10;1.92;;;;;;;18.27;45.00;102357.09;5052001;28;20029;-67
2021/01/09 05:51:40;;;;;;;3.38;1.83;;;;;;;18.24;45.07;102364.88;5052868;28;20021;-67
2021/01/09 05:54:07;;;;;;;4.80;1.95;;;;;;;18.22;45.22;102358.72;5050810;28;20013;-67
2021/01/09 05:56:38;;;;;;;2.75;1.38;;;;;;;18.20;45.10;102358.69;5048074;28;20025;-67
2021/01/09 05:59:06;;;;;;;2.90;1.85;;;;;;;18.25;45.02;102364.03;5049908;28;20059;-67
2021/01/09 06:01:34;;;;;;;1.92;1.50;;;;;;;18.33;44.74;102364.19;5033169;28;20037;-67
2021/01/09 06:04:04;;;;;;;1.75;1.30;;;;;;;18.39;44.75;102372.16;5032903;28;20037;-70
2021/01/09 06:06:32;;;;;;;2.67;1.98;;;;;;;18.39;44.93;102369.56;5040172;28;20617;-67
2021/01/09 06:09:03;;;;;;;4.05;1.98;;;;;;;18.44;44.96;102371.38;5029513;28;20045;-67
2021/01/09 06:11:31;;;;;;;3.80;1.80;;;;;;;18.50;44.27;102370.63;5023916;28;20048;-68
2021/01/09 06:14:00;;;;;;;2.70;1.83;;;;;;;18.49;44.67;102369.75;5007561;28;20101;-67
2021/01/09 06:16:31;;;;;;;2.20;1.50;;;;;;;18.46;44.54;102369.69;5027701;28;20030;-74
2021/01/09 06:18:57;;;;;;;2.75;1.80;;;;;;;18.54;44.71;102369.84;5027841;28;22347;-74
2021/01/09 06:21:25;;;;;;;4.90;2.10;;;;;;;18.59;44.50;102377.81;5014394;28;20056;-67
2021/01/09 06:23:56;;;;;;;4.47;2.83;;;;;;;18.59;44.53;102381.31;5013187;28;20062;-67
2021/01/09 06:26:23;;;;;;;2.40;1.75;;;;;;;18.60;44.48;102375.22;5030835;28;20025;-67
2021/01/09 06:28:52;;;;;;;4.22;1.75;;;;;;;18.65;44.53;102389.31;5025442;28;20037;-68
2021/01/09 06:31:20;;;;;;;2.95;2.00;;;;;;;18.75;44.24;102382.50;5030933;28;20032;-74
2021/01/09 06:33:48;;;;;;;7.05;2.15;;;;;;;18.73;44.01;102382.47;5013908;28;20026;-74
2021/01/09 06:36:15;;;;;;;3.58;2.00;;;;;;;18.74;44.28;102380.72;5007636;28;20030;-75
2021/01/09 06:38:42;;;;;;;9.98;2.72;;;;;;;18.79;44.06;102376.47;5028772;28;20104;-76
2021/01/09 06:41:12;;;;;;;3.10;1.92;;;;;;;18.86;44.15;102378.31;5014031;28;20391;-73
2021/01/09 06:43:41;;;;;;;4.97;2.13;;;;;;;18.90;44.62;102388.91;5015790;28;20033;-77
2021/01/09 06:46:07;;;;;;;7.07;3.55;;;;;;;18.95;44.36;102389.00;5033335;28;20120;-77
2021/01/09 06:48:35;;;;;;;6.95;2.85;;;;;;;18.95;44.42;102385.50;5009207;28;20124;-77
2021/01/09 06:51:00;;;;;;;5.15;2.22;;;;;;;18.94;44.39;102379.38;5015416;28;20032;-78
2021/01/09 06:53:26;;;;;;;5.35;3.10;;;;;;;18.90;44.37;102381.03;5026176;28;20033;-77
2021/01/09 06:55:52;;;;;;;5.55;2.92;;;;;;;18.96;44.47;102385.50;5022628;28;20044;-77
2021/01/09 06:58:17;;;;;;;4.93;2.67;;;;;;;18.96;44.44;102382.88;5037563;28;20029;-76
2021/01/09 07:00:43;;;;;;;10.95;3.97;;;;;;;18.92;44.62;102391.56;5034697;28;20021;-76
2021/01/09 07:03:11;;;;;;;7.60;3.03;;;;;;;18.85;44.87;102393.16;5022068;28;20041;-77
2021/01/09 07:05:54;;;;;;;4.43;2.92;;;;;;;18.79;44.95;102397.44;5035764;28;20048;-78
2021/01/09 07:08:20;;;;;;;9.02;4.00;;;;;;;18.74;45.07;102392.09;5057361;28;20638;-77
2021/01/09 07:11:12;;;;;;;3.78;2.50;;;;;;;18.68;45.28;102388.50;5047692;28;20033;-78
2021/01/09 07:13:39;;;;;;;17.98;3.30;;;;;;;18.70;45.02;102400.75;5050090;28;20053;-73
2021/01/09 07:16:08;;;;;;;5.38;2.47;;;;;;;18.72;46.00;102400.78;5046044;28;20419;-75
2021/01/09 07:18:37;;;;;;;6.05;2.92;;;;;;;18.71;46.00;102402.50;5058487;28;20029;-74
2021/01/09 07:21:06;;;;;;;6.22;3.35;;;;;;;18.68;46.12;102405.09;5058670;28;20028;-77
2021/01/09 07:23:33;;;;;;;6.90;2.92;;;;;;;18.65;46.18;102402.41;5057629;28;20075;-74
2021/01/09 07:26:01;;;;;;;8.43;3.00;;;;;;;18.63;45.97;102404.13;5058243;28;20033;-74
2021/01/09 07:28:27;;;;;;;7.90;3.53;;;;;;;18.60;46.01;102406.66;5057302;28;20123;-73
2021/01/09 07:31:06;;;;;;;5.43;3.10;;;;;;;18.57;45.69;102409.19;5056226;28;20100;-74
2021/01/09 07:33:33;;;;;;;8.18;3.35;;;;;;;18.37;45.18;102419.28;5054195;28;20029;-69
2021/01/09 07:35:59;;;;;;;6.32;3.17;;;;;;;18.26;45.19;102419.91;5036587;28;20025;-68
2021/01/09 07:38:25;;;;;;;5.28;2.78;;;;;;;18.11;43.93;102423.97;5053988;28;20055;-74
2021/01/09 07:41:00;;;;;;;7.75;3.20;;;;;;;18.04;43.80;102424.69;5053228;28;20056;-75
2021/01/09 07:43:42;;;;;;;5.72;2.97;;;;;;;18.09;43.81;102430.03;5058080;28;20120;-74
2021/01/09 07:46:26;;;;;;;4.95;2.67;;;;;;;18.15;43.58;102431.06;5047671;28;20037;-73
2021/01/09 07:48:51;;;;;;;;;;;;;;;18.20;43.83;102425.88;5054844;28;20036;-74
2021/01/09 07:51:18;;;;;;;5.07;2.90;;;;;;;18.32;43.94;102430.50;5035347;28;19917;-73
2021/01/09 07:53:46;;;;;;;6.78;3.42;;;;;;;18.45;43.54;102427.28;5041212;28;20025;-74
2021/01/09 07:56:31;;;;;;;5.50;2.40;;;;;;;18.49;43.55;102429.13;5055178;28;20459;-74
2021/01/09 07:58:57;;;;;;;5.35;2.50;;;;;;;18.50;43.72;102431.78;5053969;28;20127;-73
2021/01/09 08:01:22;;;;;;;4.88;2.35;;;;;;;18.62;43.69;102436.41;5054967;28;20037;-73
2021/01/09 08:03:48;;;;;;;6.93;2.88;;;;;;;18.70;43.50;102433.91;5039398;28;20024;-74
2021/01/09 08:06:13;;;;;;;4.95;2.63;;;;;;;18.66;43.43;102443.47;5059312;28;20049;-74
2021/01/09 08:08:38;;;;;;;4.03;1.90;;;;;;;18.69;43.62;102443.56;5054477;28;20028;-74
2021/01/09 08:11:04;;;;;;;4.30;2.45;;;;;;;18.78;43.45;102442.84;5055208;28;20108;-74
2021/01/09 08:13:29;;;;;;;7.10;3.05;;;;;;;18.79;43.54;102448.13;5053144;28;20116;-74
2021/01/09 08:15:55;;;;;;;3.30;2.05;;;;;;;18.74;43.33;102449.75;5055266;28;20360;-74
2021/01/09 08:18:20;;;;;;;4.78;2.28;;;;;;;18.80;43.32;102449.00;5053888;28;20033;-69
2021/01/09 08:20:49;;;;;;;4.05;2.10;;;;;;;18.82;43.43;102450.81;5036685;28;20028;-69
2021/01/09 08:23:14;;;;;;;4.80;2.15;;;;;;;18.78;43.20;102451.59;5053178;28;20013;-69
2021/01/09 08:25:42;;;;;;;4.30;2.30;;;;;;;18.80;43.49;102456.84;5053008;28;20021;-69
2021/01/09 08:28:07;;;;;;;4.15;2.55;;;;;;;18.85;43.43;102455.19;5053050;28;20114;-69
2021/01/09 08:30:35;;;;;;;3.13;1.75;;;;;;;18.86;43.48;102460.47;5054074;28;20097;-69
2021/01/09 08:33:11;;;;;;;4.70;1.95;;;;;;;18.82;43.54;102460.41;5054817;28;20055;-69
2021/01/09 08:35:39;;;;;;;6.50;2.60;;;;;;;18.87;43.62;102459.63;5054690;28;20066;-69
2021/01/09 08:38:05;;;;;;;5.05;2.28;;;;;;;18.89;43.28;102464.88;5053985;28;20025;-69
2021/01/09 08:40:34;;;;;;;4.10;2.17;;;;;;;18.87;43.18;102471.84;5053410;28;20029;-69
2021/01/09 08:43:10;;;;;;;4.22;2.05;;;;;;;18.89;43.53;102468.41;5052622;28;20495;-69
2021/01/09 08:45:52;;;;;;;3.92;1.70;;;;;;;18.92;43.38;102465.84;5033243;28;20060;-69
2021/01/09 08:48:29;;;;;;;4.20;2.10;;;;;;;18.91;43.38;102479.81;5056287;28;20052;-69
2021/01/09 08:51:11;;;;;;;3.30;2.10;;;;;;;18.89;43.50;102473.63;5052801;28;20025;-69
2021/01/09 08:54:07;;;;;;;3.17;1.90;;;;;;;18.95;43.44;102482.50;5053917;28;20100;-69
2021/01/09 08:56:34;;;;;;;3.60;2.40;;;;;;;18.89;43.36;102476.25;5053626;28;20025;-69
2021/01/09 08:59:04;;;;;;;3.70;2.33;;;;;;;18.94;43.61;102488.59;5052164;28;22037;-69
2021/01/09 09:01:35;;;;;;;3.88;2.30;;;;;;;18.97;43.36;102484.25;5053623;28;20033;-69
2021/01/09 09:04:04;;;;;;;3.22;1.58;;;;;;;18.96;43.43;102494.72;5053142;28;20025;-68
2021/01/09 09:06:32;;;;;;;3.13;1.48;;;;;;;18.95;43.50;102500.84;5036618;28;20047;-69
2021/01/09 09:08:58;;;;;;;3.28;2.50;;;;;;;19.00;43.45;102493.94;5052228;28;20035;-69
2021/01/09 09:11:25;;;;;;;3.60;2.05;;;;;;;19.00;43.37;102499.16;5035851;28;20120;-69
2021/01/09 09:14:06;;;;;;;3.72;1.73;;;;;;;18.97;43.28;102509.59;5052273;28;20423;-69
2021/01/09 09:16:33;;;;;;;1.92;1.23;;;;;;;18.88;43.45;102505.94;5052485;28;20025;-69
2021/01/09 09:19:08;;;;;;;3.00;1.70;;;;;;;18.83;43.64;102512.81;5035415;28;20040;-69
2021/01/09 09:21:36;;;;;;;4.22;1.70;;;;;;;18.80;43.71;102507.53;5057356;28;20048;-69
2021/01/09 09:24:01;;;;;;;2.13;1.30;;;;;;;18.79;43.86;102515.38;5065069;28;20029;-69
2021/01/09 09:26:31;;;;;;;3.25;1.98;;;;;;;18.73;43.80;102516.13;5035497;28;20033;-69
2021/01/09 09:28:56;;;;;;;3.00;1.77;;;;;;;18.73;43.89;102512.59;5052983;28;20032;-69
2021/01/09 09:31:25;;;;;;;3.72;2.13;;;;;;;18.72;43.83;102505.59;5052550;28;20380;-68
2021/01/09 09:34:04;;;;;;;3.03;1.75;;;;;;;18.69;43.90;102509.06;5056403;28;20036;-78
2021/01/09 09:36:32;;;;;;;2.92;1.98;;;;;;;18.68;43.89;102509.91;5055901;28;20051;-69
2021/01/09 09:38:58;;;;;;;2.13;1.50;;;;;;;18.66;43.84;102509.00;5055966;28;20040;-69
2021/01/09 09:41:24;;;;;;;2.25;1.88;;;;;;;18.67;43.79;102518.63;5051906;28;20029;-69
2021/01/09 09:43:57;;;;;;;2.45;1.73;;;;;;;18.66;43.93;102521.22;5035427;28;20029;-69
2021/01/09 09:46:23;;;;;;;2.42;1.60;;;;;;;18.65;43.91;102535.16;5052094;28;20067;-69
2021/01/09 09:48:49;;;;;;;1.50;1.20;;;;;;;18.61;43.98;102523.72;5033180;28;20029;-69
2021/01/09 09:51:15;;;;;;;2.72;1.50;;;;;;;18.63;43.94;102523.75;5052108;28;20063;-69
2021/01/09 09:53:50;;;;;;;2.35;1.25;;;;;;;18.57;43.44;102521.84;5053012;28;20040;-69
2021/01/09 09:56:23;;;;;;;2.60;1.63;;;;;;;18.61;43.89;102530.69;5054434;28;20032;-73
2021/01/09 09:59:00;;;;;;;2.67;1.73;;;;;;;18.59;43.79;102528.03;5060609;28;20139;-73
2021/01/09 10:01:26;;;;;;;2.22;1.52;;;;;;;18.59;43.90;102527.16;5053495;28;20037;-73
2021/01/09 10:03:51;;;;;;;1.88;1.42;;;;;;;18.54;43.84;102524.44;5057630;28;20041;-73
2021/01/09 10:06:17;;;;;;;3.80;1.50;;;;;;;18.55;44.12;102520.97;5054599;28;20538;-74
2021/01/09 10:08:43;;;;;;;4.53;1.95;;;;;;;18.53;43.90;102517.41;5053467;28;20074;-69
2021/01/09 10:11:10;;;;;;;4.07;1.65;;;;;;;18.52;43.86;102513.91;5052183;28;20029;-69
2021/01/09 10:13:36;;;;;;;2.10;1.85;;;;;;;18.51;43.82;102519.09;5055667;28;20033;-69
2021/01/09 10:16:03;;;;;;;3.15;1.45;;;;;;;18.49;44.12;102511.22;5051702;28;20025;-69
2021/01/09 10:18:30;;;;;;;2.50;1.42;;;;;;;18.51;44.01;102514.75;5036408;28;20530;-73
2021/01/09 10:20:57;;;;;;;2.63;1.10;;;;;;;18.51;43.94;102506.00;5054017;28;20390;-73
2021/01/09 10:23:23;;;;;;;2.08;1.23;;;;;;;18.49;43.99;102508.59;5053495;28;20039;-73
2021/01/09 10:25:49;;;;;;;3.05;1.95;;;;;;;18.50;43.96;102510.38;5052963;28;20052;-73
2021/01/09 10:28:14;;;;;;;1.70;1.15;;;;;;;18.53;44.03;102517.41;5053417;28;20456;-69
2021/01/09 10:30:39;;;;;;;1.33;0.85;;;;;;;18.50;43.99;102515.59;5033367;28;20539;-69
2021/01/09 10:33:05;;;;;;;1.95;1.10;;;;;;;18.51;43.98;102519.09;5051278;28;20055;-69
2021/01/09 10:35:31;;;;;;;2.38;1.20;;;;;;;18.49;44.05;102524.31;5052956;28;20050;-69
2021/01/09 10:37:57;;;;;;;1.83;1.10;;;;;;;18.50;44.05;102517.34;5055294;28;20097;-73
2021/01/09 10:40:22;;;;;;;2.78;1.25;;;;;;;18.50;44.12;102515.59;5055354;28;20028;-73
2021/01/09 10:42:47;;;;;;;3.22;1.33;;;;;;;18.46;44.14;102512.88;5057271;28;20055;-73
2021/01/09 10:45:16;;;;;;;2.00;1.17;;;;;;;18.50;43.96;102517.34;5039419;28;21958;-73
2021/01/09 10:47:42;;;;;;;2.53;1.77;;;;;;;18.50;43.95;102525.19;5059012;28;20032;-72
2021/01/09 10:50:09;;;;;;;1.88;1.13;;;;;;;18.45;44.25;102513.72;5059894;28;20033;-69
2021/01/09 10:52:34;;;;;;;2.00;1.10;;;;;;;18.46;44.09;102508.53;5054902;28;20040;-69
2021/01/09 10:55:01;;;;;;;2.38;1.35;;;;;;;18.47;44.04;102510.28;5040310;28;20040;-73
2021/01/09 10:57:27;;;;;;;2.28;1.17;;;;;;;18.46;44.02;102502.41;5060732;28;20356;-70
2021/01/09 10:59:52;;;;;;;2.45;1.20;;;;;;;18.42;43.99;102498.84;5058081;28;20044;-71
2021/01/09 11:02:17;;;;;;;1.83;0.95;;;;;;;18.45;43.94;102498.00;5058218;28;20028;-69
2021/01/09 11:04:43;;;;;;;2.05;1.00;;;;;;;18.48;43.95;102505.94;5056681;28;20075;-69
2021/01/09 11:07:09;;;;;;;1.85;1.23;;;;;;;18.47;44.24;102498.94;5057719;28;20053;-69
2021/01/09 11:09:34;;;;;;;3.25;1.50;;;;;;;18.47;44.04;102502.44;5057053;28;20032;-74
2021/01/09 11:11:59;;;;;;;2.17;1.00;;;;;;;18.43;43.97;102497.13;5042794;28;20029;-73
2021/01/09 11:14:25;;;;;;;1.42;0.98;;;;;;;18.46;43.91;102486.69;5059695;28;20025;-73
2021/01/09 11:16:55;;;;;;;2.80;1.40;;;;;;;18.47;44.17;102483.22;5062081;28;20025;-74
2021/01/09 11:19:20;;;;;;;2.42;1.35;;;;;;;18.45;43.98;102485.78;5062102;28;20036;-73
2021/01/09 11:21:45;;;;;;;2.30;1.60;;;;;;;18.46;43.94;102484.06;5072801;28;20024;-73
2021/01/09 11:24:11;;;;;;;1.48;1.02;;;;;;;18.43;44.31;102477.06;5064240;28;20064;-73
2021/01/09 11:26:36;;;;;;;6.10;1.55;;;;;;;18.45;44.03;102482.28;5058618;28;20040;-70